< Typhoon 201010 2010 Season Typhoon 201012 >
Typhoon 201011 (FANAPI)
General InformationTrack Information on Google MapsDetailed Wind InformationList of All Images || NewsDisaster Info.WeblogTrackbackTyphoon FrontTwiphoonTyphoon Now!Typhoon ImaginationResourceGoogle EarthGE AnimationAtom FeedGeoJSON
Detalied Best Track (Time Zone = UTC)
Year Month Day Hour Lat. Long. Pressure (hPa) Wind (kt) Class Image
2010 9 14 18 19.6 129.1 1008 0 2 Image
2010 9 15 00 20.2 128.5 1006 0 2 Image
2010 9 15 06 20.6 127.8 1004 0 2 Image
2010 9 15 12 20.9 127.8 1000 35 3 Image
2010 9 15 18 21.1 127.8 990 45 3 Image
2010 9 16 00 21.3 128.0 985 50 4 Image
2010 9 16 06 21.4 128.3 980 55 4 Image
2010 9 16 12 21.7 128.5 975 60 4 Image
2010 9 16 18 22.1 128.4 970 65 5 Image
2010 9 17 00 22.4 128.3 970 65 5 Image
2010 9 17 06 22.7 128.0 965 70 5 Image
2010 9 17 12 23.1 127.7 955 75 5 Image
2010 9 17 18 23.3 126.8 950 80 5 Image
2010 9 17 21 23.3 126.4 940 85 5 Image
2010 9 18 00 23.4 126.1 940 85 5 Image
2010 9 18 03 23.5 125.7 940 85 5 Image
2010 9 18 06 23.8 125.3 940 85 5 Image
2010 9 18 09 23.8 124.8 940 85 5 Image
2010 9 18 12 23.9 124.3 940 85 5 Image
2010 9 18 15 23.8 123.8 930 95 5 Image
2010 9 18 18 24.0 123.1 930 95 5 Image
2010 9 18 21 23.8 122.5 940 85 5 Image
2010 9 19 00 23.7 121.6 950 80 5 Image
2010 9 19 06 22.8 120.8 970 65 5 Image
2010 9 19 12 23.2 119.9 975 60 4 Image
2010 9 19 18 23.4 118.7 975 60 4 Image
2010 9 20 00 23.6 117.2 985 50 4 Image
2010 9 20 06 23.6 116.0 990 45 3 Image
2010 9 20 12 24.1 114.7 996 40 3 Image
2010 9 20 18 24.2 113.1 1000 0 2 Image
2010 9 21 00 24.0 112.1 1002 0 2 Image
2010 9 21 06 24.0 111.1 1002 0 2 Image
2010 9 21 12 24.3 110.1 1004 0 2 Image
Japan Meteorological Agency Best Track Data | Correction Date : 2010-11-11
< Typhoon 201010 2010 Season Typhoon 201012 >

Help